sensor_id;sensor_type;location;lat;lon;timestamp;pressure;altitude;pressure_sealevel;temperature;humidity
7441;BME280;29616;51.950;8.572;2023-01-29T00:00:41;101379.03;;;-1.35;100.00
7441;BME280;29616;51.950;8.572;2023-01-29T00:03:11;101400.06;;;-1.22;100.00
7441;BME280;29616;51.950;8.572;2023-01-29T00:05:41;101387.81;;;-1.30;100.00
7441;BME280;29616;51.950;8.572;2023-01-29T00:08:11;101390.50;;;-1.30;100.00
7441;BME280;29616;51.950;8.572;2023-01-29T00:10:40;101402.84;;;-1.25;100.00
7441;BME280;29616;51.950;8.572;2023-01-29T00:13:11;101388.59;;;-1.27;100.00
7441;BME280;29616;51.950;8.572;2023-01-29T00:15:41;101382.09;;;-1.19;100.00
7441;BME280;29616;51.950;8.572;2023-01-29T00:18:12;101385.56;;;-1.14;100.00
7441;BME280;29616;51.950;8.572;2023-01-29T00:20:42;101375.75;;;-1.15;100.00
7441;BME280;29616;51.950;8.572;2023-01-29T00:23:12;101378.44;;;-1.17;100.00
7441;BME280;29616;51.950;8.572;2023-01-29T00:25:41;101359.88;;;-1.23;100.00
7441;BME280;29616;51.950;8.572;2023-01-29T00:28:10;101353.56;;;-1.22;100.00
7441;BME280;29616;51.950;8.572;2023-01-29T00:30:41;101371.91;;;-1.08;100.00
7441;BME280;29616;51.950;8.572;2023-01-29T00:33:10;101376.38;;;-1.07;100.00
7441;BME280;29616;51.950;8.572;2023-01-29T00:35:40;101377.25;;;-1.07;100.00
7441;BME280;29616;51.950;8.572;2023-01-29T00:38:10;101370.19;;;-1.09;100.00
7441;BME280;29616;51.950;8.572;2023-01-29T00:40:39;101362.13;;;-1.09;100.00
7441;BME280;29616;51.950;8.572;2023-01-29T00:43:26;101378.06;;;-1.05;100.00
7441;BME280;29616;51.950;8.572;2023-01-29T00:46:13;101367.91;;;-0.95;100.00
7441;BME280;29616;51.950;8.572;2023-01-29T00:48:41;101375.13;;;-0.97;100.00
7441;BME280;29616;51.950;8.572;2023-01-29T00:51:12;101372.63;;;-1.02;100.00
7441;BME280;29616;51.950;8.572;2023-01-29T00:53:41;101368.22;;;-1.04;100.00
7441;BME280;29616;51.950;8.572;2023-01-29T00:56:11;101361.00;;;-1.02;100.00
7441;BME280;29616;51.950;8.572;2023-01-29T00:58:40;101352.16;;;-1.06;100.00
7441;BME280;29616;51.950;8.572;2023-01-29T01:01:09;101343.22;;;-1.06;100.00
7441;BME280;29616;51.950;8.572;2023-01-29T01:03:41;101357.28;;;-0.98;100.00
7441;BME280;29616;51.950;8.572;2023-01-29T01:06:09;101355.56;;;-1.01;100.00
7441;BME280;29616;51.950;8.572;2023-01-29T01:08:40;101362.75;;;-1.01;100.00
7441;BME280;29616;51.950;8.572;2023-01-29T01:11:43;101368.06;;;-1.00;100.00
7441;BME280;29616;51.950;8.572;2023-01-29T01:14:12;101369.09;;;-1.04;100.00
7441;BME280;29616;51.950;8.572;2023-01-29T01:16:42;101360.28;;;-1.07;100.00
7441;BME280;29616;51.950;8.572;2023-01-29T01:19:14;101340.84;;;-1.15;100.00
7441;BME280;29616;51.950;8.572;2023-01-29T01:21:44;101361.28;;;-1.11;100.00
7441;BME280;29616;51.950;8.572;2023-01-29T01:24:14;101369.22;;;-1.07;100.00
7441;BME280;29616;51.950;8.572;2023-01-29T01:26:44;101361.97;;;-1.05;100.00
7441;BME280;29616;51.950;8.572;2023-01-29T01:29:12;101348.41;;;-1.00;100.00
7441;BME280;29616;51.950;8.572;2023-01-29T01:31:43;101341.22;;;-1.00;100.00
7441;BME280;29616;51.950;8.572;2023-01-29T01:34:14;101326.28;;;-1.07;100.00
7441;BME280;29616;51.950;8.572;2023-01-29T01:36:42;101324.78;;;-1.17;100.00
7441;BME280;29616;51.950;8.572;2023-01-29T01:39:11;101318.56;;;-1.17;100.00
7441;BME280;29616;51.950;8.572;2023-01-29T01:41:42;101310.88;;;-1.28;100.00
7441;BME280;29616;51.950;8.572;2023-01-29T01:47:14;101325.78;;;-1.19;100.00
7441;BME280;29616;51.950;8.572;2023-01-29T01:49:46;101337.69;;;-1.28;100.00
7441;BME280;29616;51.950;8.572;2023-01-29T01:52:17;101328.78;;;-1.29;100.00
7441;BME280;29616;51.950;8.572;2023-01-29T01:54:47;101329.59;;;-1.27;100.00
7441;BME280;29616;51.950;8.572;2023-01-29T01:57:21;101337.81;;;-1.33;100.00
7441;BME280;29616;51.950;8.572;2023-01-29T01:59:57;101328.59;;;-1.24;100.00
7441;BME280;29616;51.950;8.572;2023-01-29T02:02:27;101331.34;;;-1.26;100.00
7441;BME280;29616;51.950;8.572;2023-01-29T02:05:15;101350.03;;;-1.23;100.00
7441;BME280;29616;51.950;8.572;2023-01-29T02:08:01;101344.69;;;-1.24;100.00
7441;BME280;29616;51.950;8.572;2023-01-29T02:10:49;101348.28;;;-1.24;100.00
7441;BME280;29616;51.950;8.572;2023-01-29T02:13:19;101345.59;;;-1.24;100.00
7441;BME280;29616;51.950;8.572;2023-01-29T02:15:48;101348.56;;;-1.33;100.00
7441;BME280;29616;51.950;8.572;2023-01-29T02:18:20;101354.78;;;-1.31;100.00
7441;BME280;29616;51.950;8.572;2023-01-29T02:21:08;101345.78;;;-1.30;100.00
7441;BME280;29616;51.950;8.572;2023-01-29T02:26:57;101343.34;;;-1.37;100.00
7441;BME280;29616;51.950;8.572;2023-01-29T02:29:47;101351.47;;;-1.40;100.00
7441;BME280;29616;51.950;8.572;2023-01-29T02:32:28;101341.72;;;-1.43;100.00
7441;BME280;29616;51.950;8.572;2023-01-29T02:35:09;101348.88;;;-1.43;100.00
7441;BME280;29616;51.950;8.572;2023-01-29T02:38:08;101360.59;;;-1.46;100.00
7441;BME280;29616;51.950;8.572;2023-01-29T02:40:43;101356.25;;;-1.50;100.00
7441;BME280;29616;51.950;8.572;2023-01-29T02:43:25;101359.53;;;-1.40;100.00
7441;BME280;29616;51.950;8.572;2023-01-29T02:46:08;101370.97;;;-1.34;100.00
7441;BME280;29616;51.950;8.572;2023-01-29T02:48:42;101356.75;;;-1.37;100.00
7441;BME280;29616;51.950;8.572;2023-01-29T02:51:17;101361.22;;;-1.38;100.00
7441;BME280;29616;51.950;8.572;2023-01-29T02:53:56;101373.66;;;-1.35;100.00
7441;BME280;29616;51.950;8.572;2023-01-29T02:56:33;101366.59;;;-1.38;100.00
7441;BME280;29616;51.950;8.572;2023-01-29T02:59:08;101363.63;;;-1.29;100.00
7441;BME280;29616;51.950;8.572;2023-01-29T03:01:47;101358.09;;;-1.23;100.00
7441;BME280;29616;51.950;8.572;2023-01-29T03:04:23;101368.59;;;-1.16;100.00
7441;BME280;29616;51.950;8.572;2023-01-29T03:06:58;101367.63;;;-1.14;100.00
7441;BME280;29616;51.950;8.572;2023-01-29T03:09:35;101359.63;;;-1.15;100.00
7441;BME280;29616;51.950;8.572;2023-01-29T03:12:11;101327.88;;;-1.29;100.00
7441;BME280;29616;51.950;8.572;2023-01-29T03:14:56;101348.84;;;-1.14;100.00
7441;BME280;29616;51.950;8.572;2023-01-29T03:18:04;101356.50;;;-1.02;100.00
7441;BME280;29616;51.950;8.572;2023-01-29T03:20:40;101358.38;;;-1.04;100.00
7441;BME280;29616;51.950;8.572;2023-01-29T03:23:19;101337.28;;;-1.16;100.00
7441;BME280;29616;51.950;8.572;2023-01-29T03:25:55;101351.91;;;-0.98;100.00
7441;BME280;29616;51.950;8.572;2023-01-29T03:28:46;101353.75;;;-1.00;100.00
7441;BME280;29616;51.950;8.572;2023-01-29T03:31:34;101351.97;;;-1.00;100.00
7441;BME280;29616;51.950;8.572;2023-01-29T03:34:26;101346.44;;;-0.95;100.00
7441;BME280;29616;51.950;8.572;2023-01-29T03:37:06;101344.59;;;-0.93;100.00
7441;BME280;29616;51.950;8.572;2023-01-29T03:39:36;101335.81;;;-0.98;100.00
7441;BME280;29616;51.950;8.572;2023-01-29T03:42:15;101332.75;;;-0.88;100.00
7441;BME280;29616;51.950;8.572;2023-01-29T03:44:55;101325.75;;;-0.92;100.00
7441;BME280;29616;51.950;8.572;2023-01-29T03:47:38;101337.19;;;-0.85;100.00
7441;BME280;29616;51.950;8.572;2023-01-29T03:50:26;101340.88;;;-0.89;100.00
7441;BME280;29616;51.950;8.572;2023-01-29T03:53:08;101314.22;;;-0.95;100.00
7441;BME280;29616;51.950;8.572;2023-01-29T03:55:50;101330.13;;;-0.89;100.00
7441;BME280;29616;51.950;8.572;2023-01-29T03:58:27;101327.25;;;-0.83;100.00
7441;BME280;29616;51.950;8.572;2023-01-29T04:01:00;101320.22;;;-0.87;100.00
7441;BME280;29616;51.950;8.572;2023-01-29T04:03:35;101340.59;;;-0.80;100.00
7441;BME280;29616;51.950;8.572;2023-01-29T04:06:12;101334.34;;;-0.82;100.00
7441;BME280;29616;51.950;8.572;2023-01-29T04:09:12;101317.81;;;-0.95;100.00
7441;BME280;29616;51.950;8.572;2023-01-29T04:11:48;101326.00;;;-0.99;100.00
7441;BME280;29616;51.950;8.572;2023-01-29T04:14:18;101316.78;;;-0.91;100.00
7441;BME280;29616;51.950;8.572;2023-01-29T04:16:52;101308.84;;;-0.95;100.00
7441;BME280;29616;51.950;8.572;2023-01-29T04:19:37;101316.88;;;-0.94;100.00
7441;BME280;29616;51.950;8.572;2023-01-29T04:22:13;101316.72;;;-0.89;100.00
7441;BME280;29616;51.950;8.572;2023-01-29T04:24:45;101308.47;;;-0.83;100.00
7441;BME280;29616;51.950;8.572;2023-01-29T04:27:28;101277.00;;;-1.04;100.00
7441;BME280;29616;51.950;8.572;2023-01-29T04:30:14;101274.69;;;-0.90;100.00
7441;BME280;29616;51.950;8.572;2023-01-29T04:33:02;101266.78;;;-0.93;100.00
7441;BME280;29616;51.950;8.572;2023-01-29T04:35:49;101269.91;;;-0.81;100.00
7441;BME280;29616;51.950;8.572;2023-01-29T04:38:31;101251.03;;;-0.79;100.00
7441;BME280;29616;51.950;8.572;2023-01-29T04:41:05;101238.59;;;-0.82;100.00
7441;BME280;29616;51.950;8.572;2023-01-29T04:43:44;101246.50;;;-0.77;100.00
7441;BME280;29616;51.950;8.572;2023-01-29T04:46:23;101245.66;;;-0.79;100.00
7441;BME280;29616;51.950;8.572;2023-01-29T04:49:06;101243.81;;;-0.77;100.00
7441;BME280;29616;51.950;8.572;2023-01-29T04:51:45;101233.41;;;-0.86;100.00
7441;BME280;29616;51.950;8.572;2023-01-29T04:54:27;101211.38;;;-0.96;100.00
7441;BME280;29616;51.950;8.572;2023-01-29T04:57:05;101224.53;;;-0.88;100.00
7441;BME280;29616;51.950;8.572;2023-01-29T04:59:43;101206.16;;;-1.00;100.00
7441;BME280;29616;51.950;8.572;2023-01-29T05:02:14;101208.75;;;-0.97;100.00
7441;BME280;29616;51.950;8.572;2023-01-29T05:04:46;101207.84;;;-0.96;100.00
7441;BME280;29616;51.950;8.572;2023-01-29T05:07:15;101209.84;;;-1.03;100.00
7441;BME280;29616;51.950;8.572;2023-01-29T05:09:49;101221.25;;;-0.96;100.00
7441;BME280;29616;51.950;8.572;2023-01-29T05:12:19;101223.03;;;-0.97;100.00
7441;BME280;29616;51.950;8.572;2023-01-29T05:14:52;101212.59;;;-1.04;100.00
7441;BME280;29616;51.950;8.572;2023-01-29T05:17:24;101209.72;;;-1.00;100.00
7441;BME280;29616;51.950;8.572;2023-01-29T05:19:55;101219.47;;;-0.97;100.00
7441;BME280;29616;51.950;8.572;2023-01-29T05:22:23;101219.38;;;-0.94;100.00
7441;BME280;29616;51.950;8.572;2023-01-29T05:24:54;101225.16;;;-0.80;100.00
7441;BME280;29616;51.950;8.572;2023-01-29T05:27:30;101224.19;;;-0.79;100.00
7441;BME280;29616;51.950;8.572;2023-01-29T05:30:16;101233.19;;;-0.80;100.00
7441;BME280;29616;51.950;8.572;2023-01-29T05:32:46;101229.44;;;-1.01;100.00
7441;BME280;29616;51.950;8.572;2023-01-29T05:35:16;101231.72;;;-0.89;100.00
7441;BME280;29616;51.950;8.572;2023-01-29T05:37:44;101236.09;;;-0.86;100.00
7441;BME280;29616;51.950;8.572;2023-01-29T05:40:14;101246.63;;;-0.80;100.00
7441;BME280;29616;51.950;8.572;2023-01-29T05:42:44;101244.66;;;-0.75;100.00
7441;BME280;29616;51.950;8.572;2023-01-29T05:45:14;101249.16;;;-0.77;100.00
7441;BME280;29616;51.950;8.572;2023-01-29T05:47:45;101243.06;;;-0.81;100.00
7441;BME280;29616;51.950;8.572;2023-01-29T05:50:14;101240.75;;;-0.91;100.00
7441;BME280;29616;51.950;8.572;2023-01-29T05:52:44;101246.94;;;-0.89;100.00
7441;BME280;29616;51.950;8.572;2023-01-29T05:55:14;101247.38;;;-1.01;100.00
7441;BME280;29616;51.950;8.572;2023-01-29T05:57:45;101251.38;;;-0.88;100.00
7441;BME280;29616;51.950;8.572;2023-01-29T06:00:14;101255.97;;;-0.92;100.00
7441;BME280;29616;51.950;8.572;2023-01-29T06:02:45;101260.56;;;-0.95;100.00
7441;BME280;29616;51.950;8.572;2023-01-29T06:05:15;101274.25;;;-1.03;100.00
7441;BME280;29616;51.950;8.572;2023-01-29T06:07:44;101274.34;;;-1.06;100.00
7441;BME280;29616;51.950;8.572;2023-01-29T06:10:16;101270.63;;;-1.02;100.00
7441;BME280;29616;51.950;8.572;2023-01-29T06:12:46;101262.72;;;-1.06;100.00
7441;BME280;29616;51.950;8.572;2023-01-29T06:15:15;101258.25;;;-1.06;100.00
7441;BME280;29616;51.950;8.572;2023-01-29T06:17:47;101250.16;;;-1.04;100.00
7441;BME280;29616;51.950;8.572;2023-01-29T06:20:16;101241.94;;;-1.00;100.00
7441;BME280;29616;51.950;8.572;2023-01-29T06:22:45;101238.72;;;-1.09;100.00
7441;BME280;29616;51.950;8.572;2023-01-29T06:25:15;101246.41;;;-1.00;100.00
7441;BME280;29616;51.950;8.572;2023-01-29T06:27:49;101240.53;;;-0.85;100.00
7441;BME280;29616;51.950;8.572;2023-01-29T06:30:19;101245.13;;;-0.89;100.00
7441;BME280;29616;51.950;8.572;2023-01-29T06:32:50;101259.03;;;-1.02;100.00
7441;BME280;29616;51.950;8.572;2023-01-29T06:35:19;101278.53;;;-0.97;100.00
7441;BME280;29616;51.950;8.572;2023-01-29T06:37:47;101272.88;;;-0.90;100.00
7441;BME280;29616;51.950;8.572;2023-01-29T06:40:17;101265.63;;;-0.86;100.00
7441;BME280;29616;51.950;8.572;2023-01-29T06:42:46;101276.66;;;-0.95;100.00
7441;BME280;29616;51.950;8.572;2023-01-29T06:45:15;101275.78;;;-0.96;100.00
7441;BME280;29616;51.950;8.572;2023-01-29T06:47:45;101269.31;;;-0.90;100.00
7441;BME280;29616;51.950;8.572;2023-01-29T06:50:14;101265.88;;;-0.94;100.00
7441;BME280;29616;51.950;8.572;2023-01-29T06:52:43;101271.53;;;-1.01;100.00
7441;BME280;29616;51.950;8.572;2023-01-29T06:55:12;101267.78;;;-0.97;100.00
7441;BME280;29616;51.950;8.572;2023-01-29T06:57:44;101269.13;;;-0.84;100.00
7441;BME280;29616;51.950;8.572;2023-01-29T07:00:14;101266.41;;;-0.83;100.00
7441;BME280;29616;51.950;8.572;2023-01-29T07:02:48;101273.22;;;-0.74;100.00
7441;BME280;29616;51.950;8.572;2023-01-29T07:05:17;101258.06;;;-0.75;100.00
7441;BME280;29616;51.950;8.572;2023-01-29T07:07:47;101246.56;;;-0.79;100.00
7441;BME280;29616;51.950;8.572;2023-01-29T07:10:16;101269.22;;;-0.87;100.00
7441;BME280;29616;51.950;8.572;2023-01-29T07:12:47;101270.88;;;-0.83;100.00
7441;BME280;29616;51.950;8.572;2023-01-29T07:15:18;101250.41;;;-0.86;100.00
7441;BME280;29616;51.950;8.572;2023-01-29T07:17:57;101260.69;;;-0.74;100.00
7441;BME280;29616;51.950;8.572;2023-01-29T07:20:27;101268.81;;;-0.75;100.00
7441;BME280;29616;51.950;8.572;2023-01-29T07:22:56;101269.91;;;-0.81;100.00
7441;BME280;29616;51.950;8.572;2023-01-29T07:25:27;101266.88;;;-0.72;100.00
7441;BME280;29616;51.950;8.572;2023-01-29T07:28:00;101273.94;;;-0.69;100.00
7441;BME280;29616;51.950;8.572;2023-01-29T07:30:29;101256.31;;;-0.76;100.00
7441;BME280;29616;51.950;8.572;2023-01-29T07:33:01;101277.97;;;-0.56;100.00
7441;BME280;29616;51.950;8.572;2023-01-29T07:35:36;101276.25;;;-0.58;100.00
7441;BME280;29616;51.950;8.572;2023-01-29T07:38:06;101269.53;;;-0.70;100.00
7441;BME280;29616;51.950;8.572;2023-01-29T07:40:36;101262.66;;;-0.79;100.00
7441;BME280;29616;51.950;8.572;2023-01-29T07:43:08;101252.69;;;-0.75;100.00
7441;BME280;29616;51.950;8.572;2023-01-29T07:45:39;101252.47;;;-0.69;100.00
7441;BME280;29616;51.950;8.572;2023-01-29T07:48:11;101248.97;;;-0.71;100.00
7441;BME280;29616;51.950;8.572;2023-01-29T07:50:40;101254.91;;;-0.62;100.00
7441;BME280;29616;51.950;8.572;2023-01-29T07:53:12;101271.53;;;-0.52;100.00
7441;BME280;29616;51.950;8.572;2023-01-29T07:55:43;101266.28;;;-0.55;100.00
7441;BME280;29616;51.950;8.572;2023-01-29T07:58:13;101246.88;;;-0.63;100.00
7441;BME280;29616;51.950;8.572;2023-01-29T08:00:44;101233.41;;;-0.62;100.00
7441;BME280;29616;51.950;8.572;2023-01-29T08:03:15;101207.66;;;-0.67;100.00
7441;BME280;29616;51.950;8.572;2023-01-29T08:05:47;101218.94;;;-0.57;100.00
7441;BME280;29616;51.950;8.572;2023-01-29T08:08:16;101228.91;;;-0.61;100.00
7441;BME280;29616;51.950;8.572;2023-01-29T08:10:45;101237.22;;;-0.44;100.00
7441;BME280;29616;51.950;8.572;2023-01-29T08:13:16;101247.19;;;-0.23;100.00
7441;BME280;29616;51.950;8.572;2023-01-29T08:15:46;101239.31;;;-0.27;100.00
7441;BME280;29616;51.950;8.572;2023-01-29T08:18:16;101232.22;;;-0.30;100.00
7441;BME280;29616;51.950;8.572;2023-01-29T08:20:46;101221.19;;;-0.22;100.00
7441;BME280;29616;51.950;8.572;2023-01-29T08:23:15;101205.00;;;-0.21;100.00
7441;BME280;29616;51.950;8.572;2023-01-29T08:25:45;101196.72;;;-0.15;100.00
7441;BME280;29616;51.950;8.572;2023-01-29T08:28:13;101195.94;;;-0.18;100.00
7441;BME280;29616;51.950;8.572;2023-01-29T08:30:46;101186.19;;;0.03;100.00
7441;BME280;29616;51.950;8.572;2023-01-29T08:33:14;101189.09;;;-0.04;100.00
7441;BME280;29616;51.950;8.572;2023-01-29T08:35:54;101194.75;;;0.12;100.00
7441;BME280;29616;51.950;8.572;2023-01-29T08:38:22;101187.44;;;0.16;100.00
7441;BME280;29616;51.950;8.572;2023-01-29T08:40:50;101195.56;;;0.14;100.00
7441;BME280;29616;51.950;8.572;2023-01-29T08:43:19;101194.97;;;0.06;100.00
7441;BME280;29616;51.950;8.572;2023-01-29T08:45:50;101201.94;;;0.12;100.00
7441;BME280;29616;51.950;8.572;2023-01-29T08:48:18;101200.75;;;0.19;100.00
7441;BME280;29616;51.950;8.572;2023-01-29T08:50:48;101217.22;;;0.33;100.00
7441;BME280;29616;51.950;8.572;2023-01-29T08:53:17;101218.00;;;0.35;100.00
7441;BME280;29616;51.950;8.572;2023-01-29T08:55:53;101215.53;;;0.30;100.00
7441;BME280;29616;51.950;8.572;2023-01-29T08:58:22;101211.69;;;0.14;100.00
7441;BME280;29616;51.950;8.572;2023-01-29T09:00:53;101205.63;;;0.09;100.00
7441;BME280;29616;51.950;8.572;2023-01-29T09:03:23;101192.69;;;0.19;100.00
7441;BME280;29616;51.950;8.572;2023-01-29T09:05:51;101186.38;;;0.20;100.00
7441;BME280;29616;51.950;8.572;2023-01-29T09:08:19;101177.69;;;0.35;100.00
7441;BME280;29616;51.950;8.572;2023-01-29T09:10:49;101175.31;;;0.49;100.00
7441;BME280;29616;51.950;8.572;2023-01-29T09:13:19;101179.22;;;0.62;100.00
7441;BME280;29616;51.950;8.572;2023-01-29T09:15:48;101168.91;;;0.73;100.00
7441;BME280;29616;51.950;8.572;2023-01-29T09:18:19;101169.66;;;0.97;100.00
7441;BME280;29616;51.950;8.572;2023-01-29T09:20:51;101176.59;;;1.02;100.00
7441;BME280;29616;51.950;8.572;2023-01-29T09:23:21;101174.16;;;0.96;100.00
7441;BME280;29616;51.950;8.572;2023-01-29T09:25:50;101163.84;;;0.86;100.00
7441;BME280;29616;51.950;8.572;2023-01-29T09:28:20;101179.66;;;0.73;100.00
7441;BME280;29616;51.950;8.572;2023-01-29T09:30:51;101151.53;;;0.80;100.00
7441;BME280;29616;51.950;8.572;2023-01-29T09:33:21;101167.72;;;1.00;100.00
7441;BME280;29616;51.950;8.572;2023-01-29T09:35:51;101161.44;;;1.00;100.00
7441;BME280;29616;51.950;8.572;2023-01-29T09:38:21;101161.97;;;1.08;100.00
7441;BME280;29616;51.950;8.572;2023-01-29T09:40:57;101163.44;;;1.15;100.00
7441;BME280;29616;51.950;8.572;2023-01-29T09:43:39;101168.63;;;1.40;100.00
7441;BME280;29616;51.950;8.572;2023-01-29T09:46:18;101148.03;;;1.18;100.00
7441;BME280;29616;51.950;8.572;2023-01-29T09:48:58;101162.03;;;1.27;100.00
7441;BME280;29616;51.950;8.572;2023-01-29T09:51:34;101164.50;;;1.31;100.00
7441;BME280;29616;51.950;8.572;2023-01-29T09:54:16;101155.69;;;1.48;100.00
7441;BME280;29616;51.950;8.572;2023-01-29T09:56:46;101161.53;;;1.76;100.00
7441;BME280;29616;51.950;8.572;2023-01-29T09:59:22;101172.69;;;1.87;100.00
7441;BME280;29616;51.950;8.572;2023-01-29T10:01:58;101168.41;;;1.83;100.00
7441;BME280;29616;51.950;8.572;2023-01-29T10:04:50;101156.13;;;1.57;100.00
7441;BME280;29616;51.950;8.572;2023-01-29T10:07:40;101153.66;;;1.53;100.00
7441;BME280;29616;51.950;8.572;2023-01-29T10:10:28;101143.84;;;1.32;100.00
7441;BME280;29616;51.950;8.572;2023-01-29T10:13:12;101145.75;;;1.30;100.00
7441;BME280;29616;51.950;8.572;2023-01-29T10:16:09;101145.13;;;1.23;100.00
7441;BME280;29616;51.950;8.572;2023-01-29T10:19:14;101130.50;;;1.49;100.00
7441;BME280;29616;51.950;8.572;2023-01-29T10:22:03;101118.25;;;1.60;100.00
7441;BME280;29616;51.950;8.572;2023-01-29T10:24:40;101117.38;;;1.60;100.00
7441;BME280;29616;51.950;8.572;2023-01-29T10:27:17;101119.66;;;1.69;100.00
7441;BME280;29616;51.950;8.572;2023-01-29T10:29:49;101101.28;;;1.77;100.00
7441;BME280;29616;51.950;8.572;2023-01-29T10:32:21;101097.00;;;1.54;100.00
7441;BME280;29616;51.950;8.572;2023-01-29T10:34:56;101085.22;;;1.75;100.00
7441;BME280;29616;51.950;8.572;2023-01-29T10:37:36;101089.81;;;2.09;100.00
7441;BME280;29616;51.950;8.572;2023-01-29T10:40:19;101100.47;;;2.12;100.00
7441;BME280;29616;51.950;8.572;2023-01-29T10:42:55;101086.16;;;2.10;100.00
7441;BME280;29616;51.950;8.572;2023-01-29T10:45:36;101086.16;;;2.10;100.00
7441;BME280;29616;51.950;8.572;2023-01-29T10:48:34;101076.13;;;1.95;100.00
7441;BME280;29616;51.950;8.572;2023-01-29T10:51:25;101060.44;;;1.86;100.00
7441;BME280;29616;51.950;8.572;2023-01-29T10:54:13;101062.22;;;2.21;100.00
7441;BME280;29616;51.950;8.572;2023-01-29T10:56:57;101062.56;;;2.15;100.00
7441;BME280;29616;51.950;8.572;2023-01-29T10:59:45;101061.84;;;1.93;100.00
7441;BME280;29616;51.950;8.572;2023-01-29T11:02:19;101066.31;;;1.94;100.00
7441;BME280;29616;51.950;8.572;2023-01-29T11:04:48;101066.47;;;1.91;100.00
7441;BME280;29616;51.950;8.572;2023-01-29T11:07:18;101058.88;;;1.99;100.00
7441;BME280;29616;51.950;8.572;2023-01-29T11:09:56;101039.16;;;1.97;100.00
7441;BME280;29616;51.950;8.572;2023-01-29T11:12:29;101052.31;;;2.05;100.00
7441;BME280;29616;51.950;8.572;2023-01-29T11:15:06;101047.09;;;1.83;100.00
7441;BME280;29616;51.950;8.572;2023-01-29T11:18:00;101033.63;;;1.83;100.00
7441;BME280;29616;51.950;8.572;2023-01-29T11:20:33;101045.78;;;2.09;100.00
7441;BME280;29616;51.950;8.572;2023-01-29T11:23:01;101040.94;;;1.98;100.00
7441;BME280;29616;51.950;8.572;2023-01-29T11:25:33;101024.47;;;2.04;100.00
7441;BME280;29616;51.950;8.572;2023-01-29T11:28:04;101020.78;;;1.88;100.00
7441;BME280;29616;51.950;8.572;2023-01-29T11:30:34;101027.34;;;1.82;100.00
7441;BME280;29616;51.950;8.572;2023-01-29T11:33:11;101018.97;;;2.06;100.00
7441;BME280;29616;51.950;8.572;2023-01-29T11:35:46;101019.69;;;2.09;100.00
7441;BME280;29616;51.950;8.572;2023-01-29T11:38:20;101004.91;;;1.82;100.00
7441;BME280;29616;51.950;8.572;2023-01-29T11:41:04;101012.94;;;2.01;100.00
7441;BME280;29616;51.950;8.572;2023-01-29T11:43:34;101001.75;;;2.08;100.00
7441;BME280;29616;51.950;8.572;2023-01-29T11:46:04;100993.38;;;2.14;100.00
7441;BME280;29616;51.950;8.572;2023-01-29T11:48:41;100991.91;;;1.90;100.00
7441;BME280;29616;51.950;8.572;2023-01-29T11:51:18;100992.72;;;2.09;100.00
7441;BME280;29616;51.950;8.572;2023-01-29T11:53:51;100978.28;;;2.10;100.00
7441;BME280;29616;51.950;8.572;2023-01-29T11:56:27;100989.25;;;2.07;100.00
7441;BME280;29616;51.950;8.572;2023-01-29T11:58:57;100983.38;;;2.16;100.00
7441;BME280;29616;51.950;8.572;2023-01-29T12:01:32;100977.50;;;2.25;100.00
7441;BME280;29616;51.950;8.572;2023-01-29T12:04:03;100960.38;;;2.09;100.00
7441;BME280;29616;51.950;8.572;2023-01-29T12:06:43;100966.56;;;2.11;100.00
7441;BME280;29616;51.950;8.572;2023-01-29T12:09:17;100940.13;;;2.01;100.00
7441;BME280;29616;51.950;8.572;2023-01-29T12:11:50;100946.09;;;2.07;100.00
7441;BME280;29616;51.950;8.572;2023-01-29T12:14:26;100946.22;;;2.21;100.00
7441;BME280;29616;51.950;8.572;2023-01-29T12:17:00;100938.50;;;2.15;100.00
7441;BME280;29616;51.950;8.572;2023-01-29T12:19:37;100939.72;;;2.42;100.00
7441;BME280;29616;51.950;8.572;2023-01-29T12:22:16;100930.06;;;2.38;100.00
7441;BME280;29616;51.950;8.572;2023-01-29T12:24:53;100938.16;;;2.38;100.00
7441;BME280;29616;51.950;8.572;2023-01-29T12:27:33;100923.63;;;2.41;100.00
7441;BME280;29616;51.950;8.572;2023-01-29T12:30:14;100925.59;;;2.55;100.00
7441;BME280;29616;51.950;8.572;2023-01-29T12:32:52;100922.13;;;2.18;100.00
7441;BME280;29616;51.950;8.572;2023-01-29T12:35:28;100906.34;;;2.28;100.00
7441;BME280;29616;51.950;8.572;2023-01-29T12:38:02;100901.47;;;2.34;100.00
7441;BME280;29616;51.950;8.572;2023-01-29T12:40:39;100896.78;;;2.38;100.00
7441;BME280;29616;51.950;8.572;2023-01-29T12:43:16;100896.06;;;2.52;100.00
7441;BME280;29616;51.950;8.572;2023-01-29T12:45:51;100894.69;;;2.60;100.00
7441;BME280;29616;51.950;8.572;2023-01-29T12:48:23;100884.78;;;2.61;100.00
7441;BME280;29616;51.950;8.572;2023-01-29T12:51:01;100887.97;;;2.52;100.00
7441;BME280;29616;51.950;8.572;2023-01-29T12:53:36;100892.75;;;2.47;100.00
7441;BME280;29616;51.950;8.572;2023-01-29T12:56:11;100877.94;;;2.54;100.00
7441;BME280;29616;51.950;8.572;2023-01-29T12:58:46;100883.38;;;2.69;100.00
7441;BME280;29616;51.950;8.572;2023-01-29T13:01:25;100871.31;;;2.43;100.00
7441;BME280;29616;51.950;8.572;2023-01-29T13:03:59;100876.84;;;2.58;100.00
7441;BME280;29616;51.950;8.572;2023-01-29T13:06:35;100868.75;;;2.58;100.00
7441;BME280;29616;51.950;8.572;2023-01-29T13:09:13;100868.13;;;2.53;100.00
7441;BME280;29616;51.950;8.572;2023-01-29T13:11:51;100868.78;;;2.73;100.00
7441;BME280;29616;51.950;8.572;2023-01-29T13:14:24;100858.44;;;2.49;100.00
7441;BME280;29616;51.950;8.572;2023-01-29T13:17:01;100867.09;;;2.55;100.00
7441;BME280;29616;51.950;8.572;2023-01-29T13:19:38;100864.22;;;2.58;100.00
7441;BME280;29616;51.950;8.572;2023-01-29T13:22:17;100862.31;;;2.27;100.00
7441;BME280;29616;51.950;8.572;2023-01-29T13:24:47;100866.72;;;2.61;100.00
7441;BME280;29616;51.950;8.572;2023-01-29T13:27:33;100829.19;;;2.41;100.00
7441;BME280;29616;51.950;8.572;2023-01-29T13:30:05;100850.63;;;2.60;100.00
7441;BME280;29616;51.950;8.572;2023-01-29T13:32:35;100852.63;;;2.72;100.00
7441;BME280;29616;51.950;8.572;2023-01-29T13:35:12;100852.88;;;2.52;100.00
7441;BME280;29616;51.950;8.572;2023-01-29T13:37:48;100843.09;;;2.33;100.00